Time;durP1;ratioP1;P1;durP2;ratioP2;P2;SDS_P1;SDS_P2;PMS_P1;PMS_P2;Temp;Humidity;BMP_temperature;BMP_pressure;BME280_temperature;BME280_humidity;BME280_pressure;Samples;Min_cycle;Max_cycle;Signal;HPM_P1;HPM_P2
2023/05/22 00:01:20;;;;;;;9.97;9.03;;;15.60;99.90;;;;;;5093304;28;20627;-63
2023/05/22 00:03:47;;;;;;;12.17;9.60;;;15.60;99.90;;;;;;5093089;28;20224;-64
2023/05/22 00:06:17;;;;;;;10.53;9.43;;;15.60;99.90;;;;;;5093035;28;20304;-63
2023/05/22 00:08:44;;;;;;;10.23;9.07;;;15.60;99.90;;;;;;5093338;28;20231;-62
2023/05/22 00:11:10;;;;;;;12.27;9.30;;;15.60;99.90;;;;;;5092964;28;20216;-62
2023/05/22 00:13:37;;;;;;;10.20;9.20;;;15.50;99.90;;;;;;5093025;28;20285;-62
2023/05/22 00:16:04;;;;;;;14.40;9.23;;;15.50;99.90;;;;;;5093451;28;20277;-63
2023/05/22 00:18:31;;;;;;;11.03;9.83;;;15.50;99.90;;;;;;5092469;28;20236;-65
2023/05/22 00:20:58;;;;;;;11.93;9.25;;;15.40;99.90;;;;;;5092878;28;20208;-63
2023/05/22 00:23:27;;;;;;;11.27;9.90;;;15.40;99.90;;;;;;5092603;28;20232;-63
2023/05/22 00:25:53;;;;;;;12.10;9.57;;;15.40;99.90;;;;;;5092885;28;20211;-63
2023/05/22 00:28:20;;;;;;;10.83;9.57;;;15.40;99.90;;;;;;5092383;28;20293;-62
2023/05/22 00:30:47;;;;;;;10.50;9.33;;;15.50;99.90;;;;;;5092813;28;20208;-62
2023/05/22 00:33:14;;;;;;;10.73;9.63;;;15.40;99.90;;;;;;5092499;28;20200;-62
2023/05/22 00:35:41;;;;;;;13.00;10.10;;;15.40;99.90;;;;;;5092923;28;20208;-62
2023/05/22 00:38:08;;;;;;;10.37;9.37;;;15.40;99.90;;;;;;5092438;28;20220;-62
2023/05/22 00:40:36;;;;;;;10.33;9.33;;;15.40;99.90;;;;;;5092858;28;20216;-63
2023/05/22 00:43:07;;;;;;;12.63;10.13;;;15.30;99.90;;;;;;5091612;28;20223;-62
2023/05/22 00:45:33;;;;;;;11.37;10.07;;;15.30;99.90;;;;;;5092559;28;20204;-62
2023/05/22 00:48:00;;;;;;;10.57;9.30;;;15.30;99.90;;;;;;5091876;28;20227;-62
2023/05/22 00:50:27;;;;;;;11.20;10.10;;;15.40;99.90;;;;;;5092537;28;20254;-62
2023/05/22 00:52:53;;;;;;;10.90;9.80;;;15.40;99.90;;;;;;5092259;28;20689;-62
2023/05/22 00:55:20;;;;;;;11.50;10.27;;;15.30;99.90;;;;;;5092362;28;20761;-63
2023/05/22 00:57:48;;;;;;;11.10;9.97;;;15.40;99.90;;;;;;5091935;28;20228;-63
2023/05/22 01:00:15;;;;;;;11.87;10.57;;;15.40;99.90;;;;;;5092111;28;20710;-63
2023/05/22 01:02:42;;;;;;;10.82;9.77;;;15.40;99.90;;;;;;5092277;28;20329;-63
2023/05/22 01:05:11;;;;;;;9.97;9.07;;;15.40;99.90;;;;;;5092343;28;20232;-62
2023/05/22 01:07:38;;;;;;;10.23;9.23;;;15.30;99.90;;;;;;5091864;28;20224;-63
2023/05/22 01:10:06;;;;;;;10.70;9.60;;;15.30;99.90;;;;;;5092211;28;20200;-63
2023/05/22 01:12:42;;;;;;;16.20;10.13;;;15.30;99.90;;;;;;5092426;28;20208;-63
2023/05/22 01:15:16;;;;;;;10.93;9.87;;;15.30;99.90;;;;;;5091876;28;20588;-63
2023/05/22 01:17:51;;;;;;;10.85;9.57;;;15.20;99.90;;;;;;5092170;28;20317;-62
2023/05/22 01:20:25;;;;;;;10.45;9.35;;;15.20;99.90;;;;;;5092134;28;20203;-63
2023/05/22 01:23:30;;;;;;;11.03;9.90;;;15.10;99.90;;;;;;5091871;28;20216;-63
2023/05/22 01:26:12;;;;;;;10.43;9.43;;;15.10;99.90;;;;;;5066542;28;20260;-63
2023/05/22 01:28:56;;;;;;;11.00;9.60;;;15.00;99.90;;;;;;5091675;28;20227;-63
2023/05/22 01:31:27;;;;;;;10.87;9.77;;;15.00;99.90;;;;;;5092319;28;20205;-62
2023/05/22 01:33:56;;;;;;;12.27;10.13;;;14.90;99.90;;;;;;5092031;28;20204;-62
2023/05/22 01:36:27;;;;;;;12.47;9.53;;;14.90;99.90;;;;;;5091993;28;20253;-62
2023/05/22 01:38:55;;;;;;;11.07;9.97;;;14.80;99.90;;;;;;5091797;28;20311;-62
2023/05/22 01:41:22;;;;;;;11.33;10.03;;;14.80;99.90;;;;;;5091868;28;20204;-62
2023/05/22 01:43:49;;;;;;;10.70;9.60;;;14.80;99.90;;;;;;5091618;28;20224;-63
2023/05/22 01:46:16;;;;;;;10.73;9.73;;;14.90;99.90;;;;;;5091497;28;20203;-62
2023/05/22 01:48:44;;;;;;;12.83;9.50;;;14.80;99.90;;;;;;5091614;28;20592;-63
2023/05/22 01:51:17;;;;;;;12.40;9.83;;;14.80;99.90;;;;;;5091798;28;20273;-62
2023/05/22 01:53:51;;;;;;;10.43;9.33;;;14.80;99.90;;;;;;5091535;28;20208;-62
2023/05/22 01:56:29;;;;;;;12.43;10.13;;;14.70;99.90;;;;;;5095430;28;20265;-61
2023/05/22 01:59:04;;;;;;;10.63;9.63;;;14.70;99.90;;;;;;5095721;28;20259;-62
2023/05/22 02:01:34;;;;;;;11.73;10.53;;;14.70;99.90;;;;;;5095706;28;20214;-62
2023/05/22 02:04:04;;;;;;;11.13;9.87;;;14.70;99.90;;;;;;5095649;28;20323;-62
2023/05/22 02:06:32;;;;;;;11.40;10.20;;;14.70;99.90;;;;;;5095587;28;20200;-61
2023/05/22 02:09:00;;;;;;;11.67;9.67;;;14.60;99.90;;;;;;5095135;28;20243;-62
2023/05/22 02:11:29;;;;;;;11.53;10.33;;;14.60;99.90;;;;;;5095666;28;20200;-61
2023/05/22 02:13:57;;;;;;;12.13;10.67;;;14.60;99.90;;;;;;5095548;28;20203;-62
2023/05/22 02:16:24;;;;;;;13.17;9.77;;;14.60;99.90;;;;;;5095292;28;20668;-62
2023/05/22 02:18:52;;;;;;;11.47;10.27;;;14.70;99.90;;;;;;5095019;28;20470;-62
2023/05/22 02:21:22;;;;;;;11.30;10.20;;;14.60;99.90;;;;;;5095282;28;20218;-62
2023/05/22 02:23:48;;;;;;;11.03;9.93;;;14.60;99.90;;;;;;5095026;28;20220;-62
2023/05/22 02:26:15;;;;;;;10.37;9.33;;;14.50;99.90;;;;;;5095327;28;20212;-62
2023/05/22 02:28:42;;;;;;;11.13;10.03;;;14.40;99.90;;;;;;5095005;28;20228;-62
2023/05/22 02:31:09;;;;;;;10.60;9.60;;;14.30;99.90;;;;;;5094803;28;20205;-62
2023/05/22 02:33:36;;;;;;;11.03;10.03;;;14.20;99.90;;;;;;5095018;28;20257;-62
2023/05/22 02:36:03;;;;;;;12.90;9.80;;;14.20;99.90;;;;;;5094934;28;20208;-62
2023/05/22 02:38:31;;;;;;;10.90;9.80;;;14.20;99.90;;;;;;5094469;28;20228;-63
2023/05/22 02:40:57;;;;;;;11.53;9.47;;;14.20;99.90;;;;;;5094949;28;20234;-62
2023/05/22 02:43:24;;;;;;;11.93;10.63;;;14.20;99.90;;;;;;5094617;28;20734;-62
2023/05/22 02:45:51;;;;;;;10.60;9.50;;;14.20;99.90;;;;;;5094556;28;20574;-61
2023/05/22 02:48:17;;;;;;;10.70;9.60;;;14.30;99.90;;;;;;5094342;28;20611;-62
2023/05/22 02:50:44;;;;;;;13.07;10.33;;;14.20;99.90;;;;;;5094585;28;20590;-62
2023/05/22 02:53:13;;;;;;;13.33;10.50;;;14.20;99.90;;;;;;5094817;28;20208;-62
2023/05/22 02:55:41;;;;;;;10.70;9.70;;;14.20;99.90;;;;;;5094712;28;20210;-62
2023/05/22 02:58:10;;;;;;;11.57;10.47;;;14.10;99.90;;;;;;5094376;28;20315;-61
2023/05/22 03:00:36;;;;;;;11.00;9.90;;;14.20;99.90;;;;;;5094492;28;20204;-62
2023/05/22 03:03:03;;;;;;;11.83;10.03;;;14.10;99.90;;;;;;5094322;28;20200;-62
2023/05/22 03:05:30;;;;;;;11.63;10.53;;;14.10;99.90;;;;;;5094357;28;20226;-62
2023/05/22 03:07:57;;;;;;;11.63;10.27;;;14.10;99.90;;;;;;5093652;28;20234;-63
2023/05/22 03:10:24;;;;;;;11.73;9.83;;;14.10;99.90;;;;;;5094366;28;20714;-62
2023/05/22 03:12:52;;;;;;;11.87;10.67;;;14.10;99.90;;;;;;5094388;28;20208;-62
2023/05/22 03:15:19;;;;;;;11.37;10.17;;;14.10;99.90;;;;;;5094258;28;20205;-61
2023/05/22 03:17:46;;;;;;;11.07;9.97;;;14.10;99.90;;;;;;5093922;28;20235;-63
2023/05/22 03:20:15;;;;;;;12.40;11.20;;;14.20;99.90;;;;;;5094528;28;20676;-62
2023/05/22 03:22:42;;;;;;;12.83;10.97;;;14.30;99.90;;;;;;5094217;28;20858;-62
2023/05/22 03:25:09;;;;;;;11.73;10.63;;;14.40;99.90;;;;;;5094116;28;20219;-63
2023/05/22 03:27:36;;;;;;;11.93;10.83;;;14.50;99.90;;;;;;5093587;28;20723;-63
2023/05/22 03:30:05;;;;;;;12.07;10.83;;;14.60;99.90;;;;;;5093825;28;20200;-61
2023/05/22 03:32:36;;;;;;;11.80;10.33;;;14.80;99.90;;;;;;5093799;28;20289;-62
2023/05/22 03:35:03;;;;;;;12.17;10.90;;;14.80;99.90;;;;;;5093991;28;20287;-61
2023/05/22 03:37:29;;;;;;;12.37;10.40;;;15.00;99.90;;;;;;5093478;28;20224;-62
2023/05/22 03:39:56;;;;;;;11.43;10.23;;;15.00;99.90;;;;;;5093770;28;20200;-62
2023/05/22 03:42:23;;;;;;;13.33;10.83;;;15.20;99.90;;;;;;5093715;28;20204;-61
2023/05/22 03:44:50;;;;;;;14.47;12.27;;;15.20;99.90;;;;;;5093674;28;20667;-61
2023/05/22 03:47:18;;;;;;;11.97;10.70;;;15.30;99.90;;;;;;5093223;28;20255;-62
2023/05/22 03:49:45;;;;;;;12.60;11.30;;;15.40;99.90;;;;;;5094047;28;20204;-62
2023/05/22 03:52:11;;;;;;;12.97;10.13;;;15.40;99.90;;;;;;5093640;28;20254;-62
2023/05/22 03:54:38;;;;;;;13.80;10.00;;;15.50;99.90;;;;;;5093379;28;20200;-62
2023/05/22 03:57:05;;;;;;;13.20;9.23;;;15.50;99.90;;;;;;5093012;28;20215;-62
2023/05/22 03:59:32;;;;;;;13.17;9.63;;;15.30;99.90;;;;;;5093255;28;20212;-62
2023/05/22 04:01:59;;;;;;;11.83;9.23;;;15.30;99.90;;;;;;5093503;28;20205;-62
2023/05/22 04:04:28;;;;;;;12.50;8.80;;;15.40;99.90;;;;;;5093607;28;20559;-62
2023/05/22 04:06:56;;;;;;;12.83;9.40;;;15.40;99.90;;;;;;5093119;28;20668;-62
2023/05/22 04:09:26;;;;;;;12.23;9.60;;;15.50;99.90;;;;;;5093205;28;20245;-62
2023/05/22 04:11:53;;;;;;;10.75;9.65;;;15.60;99.90;;;;;;5093144;28;20212;-63
2023/05/22 04:14:19;;;;;;;10.97;9.87;;;15.70;99.90;;;;;;5093233;28;20204;-62
2023/05/22 04:16:46;;;;;;;10.25;9.15;;;15.80;99.90;;;;;;5092866;28;20623;-62
2023/05/22 04:19:13;;;;;;;10.55;9.55;;;16.00;99.90;;;;;;5092490;28;20681;-62
2023/05/22 04:21:42;;;;;;;11.93;9.93;;;16.10;99.90;;;;;;5093052;28;20208;-62
2023/05/22 04:24:09;;;;;;;10.98;9.80;;;16.20;99.90;;;;;;5092969;28;20691;-62
2023/05/22 04:26:37;;;;;;;10.60;9.17;;;16.30;99.90;;;;;;5092952;28;20205;-61
2023/05/22 04:29:09;;;;;;;13.03;10.67;;;16.40;99.90;;;;;;5093065;28;20235;-62
2023/05/22 04:31:35;;;;;;;11.00;9.48;;;16.40;99.90;;;;;;5092990;28;20208;-62
2023/05/22 04:34:02;;;;;;;11.07;9.98;;;16.50;99.90;;;;;;5093074;28;20687;-62
2023/05/22 04:36:29;;;;;;;11.27;9.98;;;16.50;99.90;;;;;;5092960;28;20208;-63
2023/05/22 04:38:59;;;;;;;12.98;9.85;;;16.50;99.90;;;;;;5092598;28;20314;-63
2023/05/22 04:41:26;;;;;;;11.13;9.97;;;16.60;99.90;;;;;;5092928;28;20672;-63
2023/05/22 04:43:53;;;;;;;11.83;10.50;;;16.60;99.90;;;;;;5092399;28;20273;-63
2023/05/22 04:46:21;;;;;;;13.13;10.30;;;16.60;99.90;;;;;;5092647;28;20207;-63
2023/05/22 04:48:48;;;;;;;11.05;9.95;;;16.60;99.90;;;;;;5092276;28;20228;-63
2023/05/22 04:51:15;;;;;;;13.10;9.73;;;16.70;99.90;;;;;;5092612;28;20261;-62
2023/05/22 04:53:41;;;;;;;12.20;9.55;;;16.70;99.90;;;;;;5092542;28;20287;-62
2023/05/22 04:56:10;;;;;;;10.23;9.23;;;16.80;99.90;;;;;;5092406;28;20204;-63
2023/05/22 04:58:36;;;;;;;14.48;9.80;;;16.90;99.90;;;;;;5091830;28;20228;-62
2023/05/22 05:01:04;;;;;;;10.32;9.35;;;17.20;99.90;;;;;;5092260;28;20295;-63
2023/05/22 05:03:30;;;;;;;12.80;9.32;;;17.30;99.90;;;;;;5091859;28;20688;-63
2023/05/22 05:05:58;;;;;;;10.60;9.32;;;17.50;99.90;;;;;;5091803;28;20200;-63
2023/05/22 05:08:25;;;;;;;12.65;9.25;;;17.60;99.90;;;;;;5091558;28;20224;-63
2023/05/22 05:10:51;;;;;;;10.50;9.27;;;17.80;99.90;;;;;;5092140;28;20664;-63
2023/05/22 05:13:19;;;;;;;11.73;9.77;;;18.00;99.90;;;;;;5091942;28;20215;-63
2023/05/22 05:15:46;;;;;;;10.70;9.57;;;18.10;99.90;;;;;;5091982;28;20204;-63
2023/05/22 05:18:13;;;;;;;10.55;9.55;;;18.30;99.90;;;;;;5091783;28;20301;-62
2023/05/22 05:20:39;;;;;;;10.43;9.25;;;18.60;99.90;;;;;;5091877;28;20622;-62
2023/05/22 05:23:08;;;;;;;10.38;9.23;;;18.70;99.90;;;;;;5092127;28;20208;-62
2023/05/22 05:25:37;;;;;;;11.10;8.82;;;18.90;99.90;;;;;;5091877;28;20259;-62
2023/05/22 05:28:09;;;;;;;11.55;9.30;;;19.10;99.90;;;;;;5091571;28;20231;-62
2023/05/22 05:30:37;;;;;;;9.77;8.40;;;19.90;99.90;;;;;;5091425;28;20250;-62
2023/05/22 05:33:04;;;;;;;10.60;8.55;;;21.00;99.90;;;;;;5091638;28;20203;-62
2023/05/22 05:35:31;;;;;;;10.55;7.85;;;22.50;99.90;;;;;;5091671;28;20200;-63
2023/05/22 05:37:58;;;;;;;10.07;8.38;;;23.90;99.90;;;;;;5091525;28;20285;-63
2023/05/22 05:40:24;;;;;;;8.27;7.47;;;24.80;99.90;;;;;;5091846;28;20632;-64
2023/05/22 05:42:51;;;;;;;9.32;7.55;;;25.40;99.90;;;;;;5091237;28;20619;-65
2023/05/22 05:45:18;;;;;;;8.85;7.95;;;25.90;99.90;;;;;;5091529;28;20574;-64
2023/05/22 05:47:46;;;;;;;10.02;7.40;;;26.30;99.90;;;;;;5091319;28;20281;-64
2023/05/22 05:50:14;;;;;;;8.40;7.60;;;27.10;99.90;;;;;;5091648;28;20208;-64
2023/05/22 05:52:41;;;;;;;8.68;7.88;;;27.50;99.90;;;;;;5091682;28;20206;-62
2023/05/22 05:55:08;;;;;;;11.63;8.30;;;27.50;99.90;;;;;;5091266;28;20573;-62
2023/05/22 05:57:35;;;;;;;8.88;7.93;;;27.70;99.90;;;;;;5090916;28;20235;-62
2023/05/22 06:00:03;;;;;;;10.27;8.55;;;28.30;99.90;;;;;;5091132;28;20668;-62
2023/05/22 06:02:30;;;;;;;8.57;7.72;;;28.80;99.90;;;;;;5091309;28;20247;-62
2023/05/22 06:04:58;;;;;;;8.18;7.38;;;29.60;99.90;;;;;;5091478;28;20228;-62
2023/05/22 06:07:24;;;;;;;11.80;8.10;;;30.80;98.70;;;;;;5091291;28;20216;-62
2023/05/22 06:09:51;;;;;;;9.35;8.30;;;32.00;95.10;;;;;;5091282;28;20208;-62
2023/05/22 06:12:18;;;;;;;8.30;7.28;;;33.10;92.50;;;;;;5091246;28;20235;-63
2023/05/22 06:14:44;;;;;;;10.38;8.27;;;33.80;89.90;;;;;;5091204;28;20208;-63
2023/05/22 06:17:11;;;;;;;8.40;7.53;;;34.30;87.50;;;;;;5091085;28;20200;-63
2023/05/22 06:19:38;;;;;;;9.10;8.13;;;35.00;83.00;;;;;;5091431;28;20209;-63
2023/05/22 06:22:06;;;;;;;7.93;7.10;;;35.60;78.70;;;;;;5091081;28;20204;-63
2023/05/22 06:24:33;;;;;;;10.50;9.40;;;35.90;76.10;;;;;;5090870;28;20273;-64
2023/05/22 06:27:01;;;;;;;11.80;7.85;;;36.40;74.50;;;;;;5090967;28;20642;-64
2023/05/22 06:29:27;;;;;;;9.10;7.22;;;36.90;71.60;;;;;;5090988;28;20616;-64
2023/05/22 06:31:55;;;;;;;8.40;7.60;;;37.40;69.60;;;;;;5091230;28;20223;-64
2023/05/22 06:34:22;;;;;;;9.20;7.35;;;37.90;67.20;;;;;;5091422;28;20207;-64
2023/05/22 06:36:50;;;;;;;10.80;7.38;;;38.40;65.20;;;;;;5091275;28;20208;-64
2023/05/22 06:39:18;;;;;;;8.70;7.22;;;38.80;62.40;;;;;;5090849;28;20311;-64
2023/05/22 06:41:45;;;;;;;9.00;7.38;;;38.80;61.10;;;;;;5092029;28;20204;-64
2023/05/22 06:44:12;;;;;;;8.52;7.70;;;37.90;61.40;;;;;;5094202;28;20639;-65
2023/05/22 06:46:38;;;;;;;11.10;8.50;;;36.30;64.10;;;;;;5094560;28;20215;-63
2023/05/22 06:49:05;;;;;;;10.05;8.60;;;35.10;66.60;;;;;;5094207;28;20226;-62
2023/05/22 06:51:33;;;;;;;9.93;8.88;;;34.80;67.80;;;;;;5094647;28;20668;-63
2023/05/22 06:53:59;;;;;;;10.68;8.20;;;34.80;67.30;;;;;;5094313;28;20699;-63
2023/05/22 06:56:27;;;;;;;9.38;7.65;;;34.50;68.30;;;;;;5094458;28;20212;-64
2023/05/22 06:58:54;;;;;;;8.73;7.10;;;34.20;69.50;;;;;;5094076;28;20243;-64
2023/05/22 07:01:22;;;;;;;8.35;6.93;;;35.30;67.60;;;;;;5094610;28;20231;-63
2023/05/22 07:03:48;;;;;;;9.02;7.10;;;36.50;65.20;;;;;;5094506;28;20212;-63
2023/05/22 07:06:15;;;;;;;10.63;7.78;;;37.80;62.20;;;;;;5094251;28;20227;-63
2023/05/22 07:08:42;;;;;;;8.93;8.02;;;38.60;60.10;;;;;;5093984;28;20228;-63
2023/05/22 07:11:09;;;;;;;9.38;7.85;;;39.30;58.50;;;;;;5093890;28;20214;-63
2023/05/22 07:13:36;;;;;;;10.40;9.30;;;38.70;58.60;;;;;;5094310;28;20286;-64
2023/05/22 07:16:03;;;;;;;9.05;8.10;;;38.10;59.70;;;;;;5094314;28;20215;-63
2023/05/22 07:18:30;;;;;;;9.95;8.05;;;37.70;60.70;;;;;;5094228;28;20236;-63
2023/05/22 07:20:58;;;;;;;11.73;10.52;;;37.90;60.30;;;;;;5094170;28;20261;-65
2023/05/22 07:23:25;;;;;;;10.13;8.13;;;38.30;59.50;;;;;;5093993;28;20212;-64
2023/05/22 07:25:51;;;;;;;8.63;7.90;;;38.20;59.10;;;;;;5093790;28;20224;-64
2023/05/22 07:28:18;;;;;;;8.45;7.57;;;37.80;59.70;;;;;;5093737;28;20739;-65
2023/05/22 07:30:46;;;;;;;7.80;7.00;;;37.70;59.80;;;;;;5094281;28;20633;-64
2023/05/22 07:33:12;;;;;;;8.85;7.95;;;37.70;59.90;;;;;;5094051;28;20203;-65
2023/05/22 07:35:39;;;;;;;12.60;8.95;;;37.60;60.00;;;;;;5093891;28;20215;-64
2023/05/22 07:38:06;;;;;;;14.20;7.90;;;37.30;60.20;;;;;;5093398;28;20228;-65
2023/05/22 07:40:32;;;;;;;9.13;7.18;;;37.60;60.20;;;;;;5093385;28;20208;-65
2023/05/22 07:42:59;;;;;;;8.70;7.68;;;38.30;59.00;;;;;;5093783;28;20211;-66
2023/05/22 07:45:26;;;;;;;8.60;7.50;;;38.60;58.30;;;;;;5093372;28;20600;-67
2023/05/22 07:47:55;;;;;;;8.93;8.05;;;38.40;58.90;;;;;;5093079;28;20778;-63
2023/05/22 07:50:21;;;;;;;9.27;7.20;;;38.90;58.30;;;;;;5093558;28;20204;-65
2023/05/22 07:52:48;;;;;;;8.93;7.43;;;39.30;57.40;;;;;;5092860;28;20199;-65
2023/05/22 07:55:15;;;;;;;8.65;7.53;;;39.90;56.20;;;;;;5093814;28;20196;-64
2023/05/22 07:57:42;;;;;;;9.23;7.78;;;40.40;55.90;;;;;;5093605;28;20220;-65
2023/05/22 08:00:12;;;;;;;10.05;7.57;;;40.30;55.80;;;;;;5093343;28;20685;-64
2023/05/22 08:02:39;;;;;;;8.10;7.40;;;40.50;55.70;;;;;;5093559;28;20200;-63
2023/05/22 08:05:09;;;;;;;7.90;7.18;;;40.70;55.10;;;;;;5093277;28;20228;-63
2023/05/22 08:07:36;;;;;;;7.85;7.13;;;40.80;54.80;;;;;;5092744;28;20270;-64
2023/05/22 08:10:05;;;;;;;8.52;7.47;;;41.30;54.20;;;;;;5093361;28;20231;-64
2023/05/22 08:12:31;;;;;;;8.80;7.07;;;41.50;53.20;;;;;;5092991;28;20207;-63
2023/05/22 08:14:58;;;;;;;8.35;7.47;;;40.70;54.30;;;;;;5092932;28;20281;-64
2023/05/22 08:17:25;;;;;;;8.05;7.20;;;40.60;54.00;;;;;;5092502;28;20243;-64
2023/05/22 08:19:51;;;;;;;8.02;7.30;;;39.80;55.00;;;;;;5092858;28;20267;-62
2023/05/22 08:22:19;;;;;;;8.68;7.95;;;39.00;55.60;;;;;;5093119;28;20208;-62
2023/05/22 08:24:46;;;;;;;9.00;7.60;;;37.70;57.50;;;;;;5093006;28;20212;-64
2023/05/22 08:27:13;;;;;;;8.63;7.20;;;37.50;58.20;;;;;;5092630;28;20668;-64
2023/05/22 08:29:39;;;;;;;9.55;7.25;;;37.50;58.50;;;;;;5092532;28;20672;-64
2023/05/22 08:32:07;;;;;;;7.72;7.03;;;37.60;58.00;;;;;;5092815;28;20200;-64
2023/05/22 08:34:34;;;;;;;8.73;7.88;;;37.70;58.00;;;;;;5092683;28;20230;-64
2023/05/22 08:37:01;;;;;;;8.50;7.68;;;37.90;57.40;;;;;;5092775;28;20200;-64
2023/05/22 08:39:30;;;;;;;8.82;7.70;;;37.70;57.60;;;;;;5092365;28;20660;-64
2023/05/22 08:41:56;;;;;;;9.80;7.43;;;37.00;58.60;;;;;;5092625;28;20212;-63
2023/05/22 08:44:23;;;;;;;8.88;7.97;;;36.10;60.40;;;;;;5092425;28;20566;-64
2023/05/22 08:46:52;;;;;;;8.93;7.88;;;34.80;61.60;;;;;;5092144;28;20224;-63
2023/05/22 08:49:21;;;;;;;10.13;8.23;;;33.60;64.70;;;;;;5091922;28;20806;-63
2023/05/22 08:51:55;;;;;;;8.25;7.45;;;32.30;67.00;;;;;;5092295;28;20631;-63
2023/05/22 08:54:24;;;;;;;9.00;8.18;;;31.10;70.40;;;;;;5091988;28;20212;-62
2023/05/22 08:56:53;;;;;;;10.82;9.70;;;30.20;73.30;;;;;;5092036;28;20227;-64
2023/05/22 08:59:21;;;;;;;8.93;8.02;;;29.40;75.60;;;;;;5091209;28;20576;-63
2023/05/22 09:01:48;;;;;;;9.90;8.60;;;28.80;77.40;;;;;;5091912;28;20255;-63
2023/05/22 09:04:15;;;;;;;9.65;8.70;;;28.60;79.30;;;;;;5091376;28;20218;-62
2023/05/22 09:06:41;;;;;;;9.38;8.48;;;28.40;80.60;;;;;;5092158;28;20285;-62
2023/05/22 09:09:09;;;;;;;13.70;9.23;;;28.20;81.80;;;;;;5091783;28;20220;-62
2023/05/22 09:11:36;;;;;;;10.48;9.45;;;27.90;82.50;;;;;;5091973;28;20302;-62
2023/05/22 09:14:11;;;;;;;10.07;8.93;;;27.60;84.10;;;;;;5092062;28;20208;-62
2023/05/22 09:16:45;;;;;;;10.95;8.50;;;27.40;85.30;;;;;;5092098;28;20215;-62
2023/05/22 09:19:12;;;;;;;9.90;8.43;;;27.20;86.50;;;;;;5091586;28;20239;-62
2023/05/22 09:21:39;;;;;;;11.13;9.82;;;27.00;87.70;;;;;;5091887;28;20294;-61
2023/05/22 09:24:08;;;;;;;12.07;10.30;;;27.00;88.40;;;;;;5091829;28;20208;-62
2023/05/22 09:26:35;;;;;;;9.48;8.48;;;26.90;89.50;;;;;;5091722;28;20410;-61
2023/05/22 09:29:02;;;;;;;11.35;9.20;;;26.90;90.10;;;;;;5091766;28;20228;-62
2023/05/22 09:31:30;;;;;;;11.30;8.40;;;27.00;90.50;;;;;;5091995;28;20208;-62
2023/05/22 09:33:58;;;;;;;11.32;9.88;;;27.00;90.50;;;;;;5091967;28;20582;-62
2023/05/22 09:36:31;;;;;;;10.30;9.00;;;27.00;90.50;;;;;;5091822;28;20307;-62
2023/05/22 09:39:00;;;;;;;8.90;8.05;;;26.90;90.80;;;;;;5091466;28;20224;-61
2023/05/22 09:41:29;;;;;;;9.93;8.50;;;26.80;90.90;;;;;;5091772;28;20207;-61
2023/05/22 09:43:56;;;;;;;9.90;8.73;;;27.00;91.20;;;;;;5091963;28;20231;-61
2023/05/22 09:46:22;;;;;;;13.60;9.25;;;27.00;91.00;;;;;;5091600;28;20288;-62
2023/05/22 09:48:52;;;;;;;12.40;9.27;;;26.90;91.30;;;;;;5092170;28;20285;-60
2023/05/22 09:51:22;;;;;;;12.23;8.70;;;26.80;91.80;;;;;;5092346;28;20207;-60
2023/05/22 09:53:49;;;;;;;11.75;8.88;;;26.80;92.00;;;;;;5091669;28;20204;-60
2023/05/22 09:56:18;;;;;;;11.65;10.15;;;26.90;92.10;;;;;;5091898;28;20236;-60
2023/05/22 09:58:46;;;;;;;12.70;10.40;;;27.00;92.30;;;;;;5091368;28;20235;-60
2023/05/22 10:01:15;;;;;;;11.48;9.20;;;26.90;92.20;;;;;;5091514;28;20295;-60
2023/05/22 10:03:43;;;;;;;10.95;9.07;;;27.00;92.30;;;;;;5091715;28;20223;-60
2023/05/22 10:06:12;;;;;;;11.10;8.85;;;26.80;92.70;;;;;;5091601;28;20307;-60
2023/05/22 10:08:43;;;;;;;9.75;8.85;;;26.80;92.40;;;;;;5091529;28;20232;-60
2023/05/22 10:11:11;;;;;;;10.35;8.95;;;26.90;92.00;;;;;;5091925;28;20215;-60
2023/05/22 10:13:38;;;;;;;10.40;8.90;;;27.20;91.40;;;;;;5091908;28;20274;-60
2023/05/22 10:16:06;;;;;;;9.70;8.70;;;27.20;91.40;;;;;;5092951;28;20786;-61
2023/05/22 10:18:33;;;;;;;10.90;8.82;;;27.40;91.50;;;;;;5094880;28;20773;-60
2023/05/22 10:21:01;;;;;;;11.85;9.25;;;27.40;91.50;;;;;;5095193;28;20265;-60
2023/05/22 10:23:30;;;;;;;11.65;8.95;;;27.30;92.00;;;;;;5095186;28;20215;-60
2023/05/22 10:25:58;;;;;;;13.60;11.35;;;27.40;91.70;;;;;;5095203;28;20247;-60
2023/05/22 10:28:30;;;;;;;13.13;11.65;;;27.50;91.70;;;;;;5095120;28;20236;-60
2023/05/22 10:31:02;;;;;;;10.68;8.73;;;27.60;91.60;;;;;;5095419;28;20261;-60
2023/05/22 10:33:33;;;;;;;10.18;8.50;;;27.70;91.70;;;;;;5095844;28;20196;-58
2023/05/22 10:36:05;;;;;;;13.00;8.80;;;27.90;91.70;;;;;;5095063;28;20208;-58
2023/05/22 10:38:52;;;;;;;11.27;9.40;;;28.10;91.90;;;;;;5094929;28;20339;-59
2023/05/22 10:41:20;;;;;;;11.23;9.27;;;28.20;91.80;;;;;;5094870;28;20253;-59
2023/05/22 10:43:49;;;;;;;10.07;8.07;;;28.30;91.80;;;;;;5094963;28;20208;-60
2023/05/22 10:46:16;;;;;;;9.90;7.90;;;28.40;91.90;;;;;;5095138;28;20232;-60
2023/05/22 10:48:45;;;;;;;11.43;8.70;;;28.50;91.20;;;;;;5094297;28;20234;-60
2023/05/22 10:51:13;;;;;;;10.50;9.40;;;28.50;90.90;;;;;;5094775;28;20200;-60
2023/05/22 10:53:43;;;;;;;10.55;9.15;;;28.60;90.80;;;;;;5094927;28;20292;-60
2023/05/22 10:56:11;;;;;;;12.68;9.48;;;28.40;91.20;;;;;;5094867;28;20215;-60
2023/05/22 10:58:38;;;;;;;11.45;9.23;;;28.20;91.40;;;;;;5094662;28;20228;-60
2023/05/22 11:01:13;;;;;;;10.15;8.95;;;28.00;91.70;;;;;;5095060;28;20264;-60
2023/05/22 11:03:56;;;;;;;9.77;8.73;;;28.10;91.50;;;;;;5094916;28;20261;-59
2023/05/22 11:06:31;;;;;;;9.52;8.52;;;28.20;91.40;;;;;;5094771;28;20224;-60
2023/05/22 11:08:59;;;;;;;8.73;7.82;;;28.40;90.80;;;;;;5095158;28;20219;-63
2023/05/22 11:11:26;;;;;;;9.32;7.63;;;28.60;90.80;;;;;;5098111;28;20259;-61
2023/05/22 11:13:53;;;;;;;8.80;7.90;;;28.60;90.60;;;;;;5097470;28;20211;-61
2023/05/22 11:16:21;;;;;;;10.60;8.60;;;28.70;90.70;;;;;;5097852;28;20591;-61
2023/05/22 11:18:47;;;;;;;9.52;8.63;;;28.60;90.70;;;;;;5097570;28;20323;-60
2023/05/22 11:21:15;;;;;;;13.07;8.15;;;28.60;90.60;;;;;;5098591;28;20230;-60
2023/05/22 11:23:42;;;;;;;8.90;7.80;;;28.50;90.80;;;;;;5096915;28;20220;-60
2023/05/22 11:26:23;;;;;;;10.70;7.97;;;28.60;90.50;;;;;;5094763;28;20247;-60
2023/05/22 11:28:51;;;;;;;12.75;9.10;;;28.70;90.50;;;;;;5093259;28;20772;-61
2023/05/22 11:31:19;;;;;;;10.57;8.35;;;28.60;90.60;;;;;;5094575;28;20204;-66
2023/05/22 11:33:46;;;;;;;12.15;8.80;;;28.40;91.30;;;;;;5094266;28;20212;-61
2023/05/22 11:36:13;;;;;;;11.10;9.07;;;28.30;91.40;;;;;;5094486;28;20740;-61
2023/05/22 11:38:42;;;;;;;10.45;9.38;;;28.30;91.30;;;;;;5093936;28;20615;-62
2023/05/22 11:41:09;;;;;;;9.02;8.13;;;28.20;91.10;;;;;;5094421;28;20210;-63
2023/05/22 11:43:37;;;;;;;9.70;7.90;;;28.10;91.40;;;;;;5094204;28;20220;-62
2023/05/22 11:46:09;;;;;;;8.13;7.32;;;28.20;90.60;;;;;;5094134;28;20227;-62
2023/05/22 11:48:36;;;;;;;7.13;6.45;;;28.20;89.70;;;;;;5093528;28;20275;-61
2023/05/22 11:51:03;;;;;;;7.47;6.15;;;28.20;86.20;;;;;;5094531;28;20231;-63
2023/05/22 11:53:31;;;;;;;9.38;7.18;;;28.20;86.20;;;;;;5095945;28;20212;-62
2023/05/22 11:56:03;;;;;;;9.65;7.78;;;28.20;89.30;;;;;;5094192;28;20235;-61
2023/05/22 11:58:30;;;;;;;8.38;6.95;;;28.10;90.10;;;;;;5094175;28;20235;-62
2023/05/22 12:01:02;;;;;;;7.40;6.70;;;28.00;90.00;;;;;;5093590;28;20207;-61
2023/05/22 12:03:30;;;;;;;8.60;7.15;;;28.00;90.10;;;;;;5093198;28;20200;-61
2023/05/22 12:05:57;;;;;;;8.70;7.72;;;28.20;89.40;;;;;;5093453;28;20645;-61
2023/05/22 12:08:25;;;;;;;8.93;7.85;;;28.30;90.00;;;;;;5092856;28;20332;-62
2023/05/22 12:10:53;;;;;;;7.88;7.18;;;28.50;90.40;;;;;;5093228;28;20294;-62
2023/05/22 12:13:24;;;;;;;12.32;7.88;;;28.60;89.10;;;;;;5093048;28;20227;-62
2023/05/22 12:15:53;;;;;;;7.43;6.72;;;28.70;88.80;;;;;;5093576;28;20208;-63
2023/05/22 12:18:22;;;;;;;8.07;7.07;;;28.70;87.30;;;;;;5093015;28;20279;-62
2023/05/22 12:20:53;;;;;;;9.02;8.05;;;28.80;87.10;;;;;;5093289;28;20668;-61
2023/05/22 12:23:24;;;;;;;9.23;7.43;;;28.90;88.30;;;;;;5093273;28;20200;-61
2023/05/22 12:25:58;;;;;;;11.13;7.55;;;28.90;90.00;;;;;;5092830;28;20711;-62
2023/05/22 12:28:25;;;;;;;7.72;6.75;;;29.00;89.70;;;;;;5092908;28;20723;-62
2023/05/22 12:30:53;;;;;;;8.30;6.93;;;29.10;88.80;;;;;;5093233;28;20694;-61
2023/05/22 12:33:26;;;;;;;12.73;7.15;;;29.20;87.30;;;;;;5093176;28;20295;-63
2023/05/22 12:35:53;;;;;;;8.55;7.18;;;29.10;86.00;;;;;;5092789;28;20295;-61
2023/05/22 12:38:21;;;;;;;6.32;5.70;;;29.00;85.20;;;;;;5092267;28;20708;-62
2023/05/22 12:40:48;;;;;;;8.32;6.47;;;29.00;82.50;;;;;;5092845;28;20296;-63
2023/05/22 12:43:15;;;;;;;7.68;6.38;;;29.00;82.40;;;;;;5092852;28;20346;-62